»·PEaware :: N948QV L45-KSNA

N948QV :: L45-KSNA

FLIGHT INFORMATION

Flight Status: Arrived
Operator: Privately registered:
United States
More flights under this callsign
Pilot: Tony D. (5369)
Aircraft: CESSNA 208 CARAVAN
(C208)
More flights by this aircraft type
Origin: L45 Bakersfield Mun
United States
Destination: KSNA John Wayne-Orange Co
United States
More flights between these airports :: More routes between these airports
Route: LHS DARTS PIRRO
File this flight plan on PilotEdge
Remarks: FF
Altitude:
(Current/Filed)
9,500ft
Speed:
(Current/Filed)
150kts
Departed: 11-Feb-19 10:18 AM
Arrived: 11-Feb-19 11:12 AM
Distance/Time
Traveled:
114nm/0:54
Distance/Time
To Go:
Arrived

Flight Plot

Page will automatically refresh every two minutes.

Flight plan parsing failed; only flown route is shown


Map Options




Map Legend


Flown Route
Filed Route
Departure Airport
Arrival Airport
Navaid (VOR, NDB)
Fix

Horizontal Profiles

Position Reports

Time Latitude Longitude Heading Altitude Ground
Speed
11-Feb-19 10:10 35.324334 -118.997512 270 383ft 0kts
11-Feb-19 10:11 35.324334 -118.997512 270 383ft 0kts
11-Feb-19 10:12 35.324334 -118.997512 270 383ft 0kts
11-Feb-19 10:13 35.324334 -118.997512 270 383ft 0kts
11-Feb-19 10:14 35.324334 -118.997512 270 383ft 0kts
11-Feb-19 10:15 35.323081 -118.996886 176 380ft 17kts
11-Feb-19 10:16 35.319833 -118.996250 174 378ft 11kts
11-Feb-19 10:17 35.322776 -118.995799 354 380ft 70kts
11-Feb-19 10:18 35.339688 -119.014811 241 1063ft 102kts
11-Feb-19 10:19 35.315364 -119.019171 171 1963ft 97kts
11-Feb-19 10:20 35.288088 -119.011247 155 2872ft 105kts
11-Feb-19 10:21 35.260736 -118.998225 162 3772ft 105kts
11-Feb-19 10:22 35.234732 -118.983418 149 4664ft 103kts
11-Feb-19 10:23 35.210950 -118.965552 152 5553ft 98kts
11-Feb-19 10:24 35.188235 -118.948729 152 6439ft 92kts
11-Feb-19 10:25 35.164204 -118.930978 152 7173ft 110kts
11-Feb-19 10:26 35.136834 -118.910749 146 7869ft 120kts
11-Feb-19 10:27 35.107296 -118.888754 148 8583ft 130kts
11-Feb-19 10:28 35.075697 -118.865385 149 9294ft 134kts
11-Feb-19 10:29 35.040652 -118.839547 150 9414ft 159kts
11-Feb-19 10:30 35.001852 -118.811010 150 9397ft 165kts
11-Feb-19 10:31 34.963002 -118.782296 149 9464ft 165kts
11-Feb-19 10:32 34.922795 -118.752658 150 9465ft 169kts
11-Feb-19 10:33 34.881986 -118.722813 150 9462ft 172kts
11-Feb-19 10:34 34.840483 -118.692374 151 9466ft 173kts
11-Feb-19 10:35 34.800152 -118.662846 150 9472ft 167kts
11-Feb-19 10:36 34.760500 -118.633759 149 9480ft 165kts
11-Feb-19 10:37 34.720980 -118.605427 152 9491ft 165kts
11-Feb-19 10:38 34.679554 -118.581539 159 9499ft 165kts
11-Feb-19 10:39 34.638684 -118.556367 148 9504ft 165kts
11-Feb-19 10:40 34.598682 -118.528574 153 9506ft 165kts
11-Feb-19 10:41 34.557747 -118.502982 154 9507ft 165kts
11-Feb-19 10:42 34.516412 -118.478415 155 9503ft 166kts
11-Feb-19 10:43 34.474751 -118.453870 154 9500ft 166kts
11-Feb-19 10:44 34.433400 -118.428748 155 9500ft 166kts
11-Feb-19 10:45 34.391856 -118.404500 155 9500ft 166kts
11-Feb-19 10:46 34.350014 -118.379978 155 9497ft 166kts
11-Feb-19 10:47 34.313574 -118.348164 132 9494ft 166kts
11-Feb-19 10:48 34.281082 -118.305075 131 9170ft 173kts
11-Feb-19 10:49 34.250497 -118.264942 131 8658ft 156kts
11-Feb-19 10:50 34.221099 -118.227499 131 8159ft 151kts
11-Feb-19 10:51 34.192951 -118.190439 126 7666ft 149kts
11-Feb-19 10:52 34.168114 -118.152189 122 7494ft 140kts
11-Feb-19 10:53 34.148740 -118.111248 99 7166ft 148kts
11-Feb-19 10:54 34.131488 -118.063504 113 6473ft 156kts
11-Feb-19 10:56 34.112423 -118.016399 111 5768ft 150kts
11-Feb-19 10:57 34.094216 -117.973836 117 5494ft 131kts
11-Feb-19 10:58 34.074131 -117.937387 123 5495ft 130kts
11-Feb-19 10:59 34.052384 -117.902655 123 5493ft 130kts
11-Feb-19 11:00 34.021912 -117.878801 152 5411ft 139kts
11-Feb-19 11:01 33.981937 -117.872704 178 4929ft 149kts
11-Feb-19 11:02 33.940941 -117.872904 178 4432ft 143kts
11-Feb-19 11:03 33.902687 -117.873926 178 3928ft 134kts
11-Feb-19 11:04 33.866010 -117.874993 178 3494ft 126kts
11-Feb-19 11:05 33.832712 -117.875968 178 3216ft 124kts
11-Feb-19 11:06 33.797772 -117.876638 178 2712ft 120kts
11-Feb-19 11:07 33.768687 -117.877080 176 2170ft 91kts
11-Feb-19 11:08 33.746978 -117.877289 158 1787ft 84kts
11-Feb-19 11:09 33.728368 -117.857051 135 1110ft 96kts
11-Feb-19 11:10 33.707575 -117.849351 194 639ft 87kts
11-Feb-19 11:11 33.687704 -117.861352 201 248ft 76kts
11-Feb-19 11:12 33.675916 -117.869735 300 61ft 16kts
11-Feb-19 11:13 33.674721 -117.870925 207 61ft 14kts
11-Feb-19 11:13 33.672447 -117.873078 300 61ft 8kts
11-Feb-19 11:15 33.672376 -117.873585 206 61ft 0kts

Navigation Log

Ident Type
Flight plan parsing failed, navigation log unavailable